Terminal Aerodrome Forecast
Issued by NWS Wakefield, VA

Home | Current Version | Previous Version | Text Only | Print | Product List | Glossary On
Versions: 1 2 3 4 5 6 7 8 9 10 11 12 13 14 15 16 17 18
000
FTUS41 KAKQ 210400 AAA
TAFORF
TAF AMD
KORF 210430Z 2105/2124 04014G22KT P6SM SCT012 BKN020
     FM210800 03015KT P6SM OVC012
     FM211400 03013G22KT P6SM BKN025
     FM211700 03008KT P6SM SCT040=

USA.gov is the U.S. government's official web portal to all federal, state and local government web resources and services.